CheckWX is a tool to help pilots better visualize weather data.  It is not intended as a substitute for an official pre-flight weather briefing.

00:51:32 UTC

KLNC METAR
Lancaster Regional Airport
Lancaster, Texas, USA
Current

17 mins ago

KLNC 240035Z AUTO 18010G17KT 10SM OVC038 21/15 A3002 RMK AO2 T02060145
Observed
Mar-24 @ 00:35 UTC
Wind
  • 180° at 10 KTS
  • Gusting to 17 KTS
Visibility
10 SM
Flight Rules
VFR
Cloud Levels
  • Overcast at 3,800' AGL
Temperature
21°C / 70°F
Dewpoint
15°C / 59°F
Humidity
69%
Altimeter
30.02" Hg
Pressure
1016.62 hPa
Previous

37 mins ago

KLNC 240015Z AUTO 19008KT 10SM OVC038 21/14 A3002 RMK AO2 T02070144
Observed
Mar-24 @ 00:15 UTC
Wind
  • 190° at 8 KTS
Visibility
10 SM
Flight Rules
VFR
Cloud Levels
  • Overcast at 3,800' AGL
Temperature
21°C / 70°F
Dewpoint
14°C / 57°F
Humidity
64%
Altimeter
30.02" Hg
Pressure
1016.62 hPa
Previous

57 mins ago

KLNC 232355Z AUTO 19012G17KT 10SM OVC038 21/14 A3002 RMK AO2 T02100142 10211 20188
Observed
Mar-23 @ 23:55 UTC
Wind
  • 190° at 12 KTS
  • Gusting to 17 KTS
Visibility
10 SM
Flight Rules
VFR
Cloud Levels
  • Overcast at 3,800' AGL
Temperature
21°C / 70°F
Dewpoint
14°C / 57°F
Humidity
64%
Altimeter
30.02" Hg
Pressure
1016.62 hPa